sensor_id;sensor_type;location;lat;lon;timestamp;pressure;altitude;pressure_sealevel;temperature;humidity
43436;BME280;36399;51.444;-2.018;2022-07-12T00:02:16;101139.50;;;17.55;100.00
43436;BME280;36399;51.444;-2.018;2022-07-12T00:04:42;101128.94;;;17.42;100.00
43436;BME280;36399;51.444;-2.018;2022-07-12T00:07:08;101129.88;;;17.33;100.00
43436;BME280;36399;51.444;-2.018;2022-07-12T00:09:34;101134.31;;;17.28;100.00
43436;BME280;36399;51.444;-2.018;2022-07-12T00:12:00;101135.22;;;17.27;100.00
43436;BME280;36399;51.444;-2.018;2022-07-12T00:14:26;101136.09;;;17.26;100.00
43436;BME280;36399;51.444;-2.018;2022-07-12T00:16:52;101133.41;;;17.32;100.00
43436;BME280;36399;51.444;-2.018;2022-07-12T00:19:18;101131.66;;;17.28;100.00
43436;BME280;36399;51.444;-2.018;2022-07-12T00:21:44;101123.75;;;17.17;100.00
43436;BME280;36399;51.444;-2.018;2022-07-12T00:24:10;101124.63;;;17.12;100.00
43436;BME280;36399;51.444;-2.018;2022-07-12T00:26:36;101121.09;;;17.10;100.00
43436;BME280;36399;51.444;-2.018;2022-07-12T00:29:02;101122.84;;;17.17;100.00
43436;BME280;36399;51.444;-2.018;2022-07-12T00:31:28;101118.41;;;17.26;100.00
43436;BME280;36399;51.444;-2.018;2022-07-12T00:33:54;101115.72;;;17.34;100.00
43436;BME280;36399;51.444;-2.018;2022-07-12T00:36:20;101119.16;;;17.51;100.00
43436;BME280;36399;51.444;-2.018;2022-07-12T00:38:47;101118.19;;;17.64;100.00
43436;BME280;36399;51.444;-2.018;2022-07-12T00:41:13;101127.06;;;17.74;100.00
43436;BME280;36399;51.444;-2.018;2022-07-12T00:43:39;101126.19;;;17.71;100.00
43436;BME280;36399;51.444;-2.018;2022-07-12T00:46:05;101123.53;;;17.60;100.00
43436;BME280;36399;51.444;-2.018;2022-07-12T00:48:35;101129.78;;;17.51;100.00
43436;BME280;36399;51.444;-2.018;2022-07-12T00:51:02;101127.19;;;17.42;100.00
43436;BME280;36399;51.444;-2.018;2022-07-12T00:53:28;101125.47;;;17.27;100.00
43436;BME280;36399;51.444;-2.018;2022-07-12T00:55:55;101123.75;;;17.10;100.00
43436;BME280;36399;51.444;-2.018;2022-07-12T00:58:22;101120.25;;;16.94;100.00
43436;BME280;36399;51.444;-2.018;2022-07-12T01:00:49;101109.72;;;16.74;100.00
43436;BME280;36399;51.444;-2.018;2022-07-12T01:03:15;101108.84;;;16.66;100.00
43436;BME280;36399;51.444;-2.018;2022-07-12T01:05:42;101091.13;;;16.62;100.00
43436;BME280;36399;51.444;-2.018;2022-07-12T01:08:09;101087.56;;;16.64;100.00
43436;BME280;36399;51.444;-2.018;2022-07-12T01:10:38;101082.28;;;16.84;100.00
43436;BME280;36399;51.444;-2.018;2022-07-12T01:13:05;101091.94;;;17.03;100.00
43436;BME280;36399;51.444;-2.018;2022-07-12T01:15:31;101093.66;;;17.17;100.00
43436;BME280;36399;51.444;-2.018;2022-07-12T01:17:58;101101.63;;;17.20;100.00
43436;BME280;36399;51.444;-2.018;2022-07-12T01:20:26;101105.13;;;17.28;100.00
43436;BME280;36399;51.444;-2.018;2022-07-12T01:22:54;101101.56;;;17.35;100.00
43436;BME280;36399;51.444;-2.018;2022-07-12T01:25:20;101096.22;;;17.43;100.00
43436;BME280;36399;51.444;-2.018;2022-07-12T01:27:46;101096.25;;;17.35;100.00
43436;BME280;36399;51.444;-2.018;2022-07-12T01:30:12;101103.38;;;17.27;100.00
43436;BME280;36399;51.444;-2.018;2022-07-12T01:32:38;101099.84;;;17.22;100.00
43436;BME280;36399;51.444;-2.018;2022-07-12T01:35:06;101092.78;;;17.12;100.00
43436;BME280;36399;51.444;-2.018;2022-07-12T01:37:36;101091.94;;;17.02;100.00
43436;BME280;36399;51.444;-2.018;2022-07-12T01:40:08;101091.97;;;16.96;100.00
43436;BME280;36399;51.444;-2.018;2022-07-12T01:42:35;101094.63;;;16.91;100.00
43436;BME280;36399;51.444;-2.018;2022-07-12T01:45:01;101083.16;;;16.85;100.00
43436;BME280;36399;51.444;-2.018;2022-07-12T01:47:30;101078.75;;;16.82;100.00
43436;BME280;36399;51.444;-2.018;2022-07-12T01:49:57;101077.00;;;16.78;100.00
43436;BME280;36399;51.444;-2.018;2022-07-12T01:52:23;101078.78;;;16.76;100.00
43436;BME280;36399;51.444;-2.018;2022-07-12T01:54:49;101069.94;;;16.74;100.00
43436;BME280;36399;51.444;-2.018;2022-07-12T01:57:16;101080.56;;;16.74;100.00
43436;BME280;36399;51.444;-2.018;2022-07-12T01:59:42;101078.81;;;16.67;100.00
43436;BME280;36399;51.444;-2.018;2022-07-12T02:02:08;101074.34;;;16.60;100.00
43436;BME280;36399;51.444;-2.018;2022-07-12T02:04:34;101069.94;;;16.53;100.00
43436;BME280;36399;51.444;-2.018;2022-07-12T02:07:01;101070.84;;;16.44;100.00
43436;BME280;36399;51.444;-2.018;2022-07-12T02:09:27;101057.59;;;16.36;100.00
43436;BME280;36399;51.444;-2.018;2022-07-12T02:11:54;101052.31;;;16.33;100.00
43436;BME280;36399;51.444;-2.018;2022-07-12T02:14:20;101046.13;;;16.28;100.00
43436;BME280;36399;51.444;-2.018;2022-07-12T02:16:47;101046.13;;;16.25;100.00
43436;BME280;36399;51.444;-2.018;2022-07-12T02:19:14;101042.59;;;16.25;100.00
43436;BME280;36399;51.444;-2.018;2022-07-12T02:21:40;101034.66;;;16.32;100.00
43436;BME280;36399;51.444;-2.018;2022-07-12T02:24:07;101027.59;;;16.31;100.00
43436;BME280;36399;51.444;-2.018;2022-07-12T02:26:37;101026.69;;;16.34;100.00
43436;BME280;36399;51.444;-2.018;2022-07-12T02:29:05;101029.34;;;16.29;100.00
43436;BME280;36399;51.444;-2.018;2022-07-12T02:31:32;101037.31;;;16.29;100.00
43436;BME280;36399;51.444;-2.018;2022-07-12T02:33:58;101058.50;;;16.29;100.00
43436;BME280;36399;51.444;-2.018;2022-07-12T02:36:24;101066.44;;;16.31;100.00
43436;BME280;36399;51.444;-2.018;2022-07-12T02:38:50;101056.75;;;16.22;100.00
43436;BME280;36399;51.444;-2.018;2022-07-12T02:41:16;101068.19;;;16.00;100.00
43436;BME280;36399;51.444;-2.018;2022-07-12T02:43:42;101070.84;;;15.80;100.00
43436;BME280;36399;51.444;-2.018;2022-07-12T02:46:10;101059.34;;;15.63;100.00
43436;BME280;36399;51.444;-2.018;2022-07-12T02:48:37;101061.91;;;15.52;100.00
43436;BME280;36399;51.444;-2.018;2022-07-12T02:51:05;101052.22;;;15.45;100.00
43436;BME280;36399;51.444;-2.018;2022-07-12T02:53:32;101055.75;;;15.50;100.00
43436;BME280;36399;51.444;-2.018;2022-07-12T02:55:59;101052.19;;;15.43;100.00
43436;BME280;36399;51.444;-2.018;2022-07-12T02:58:25;101056.63;;;15.52;100.00
43436;BME280;36399;51.444;-2.018;2022-07-12T03:00:51;101061.91;;;15.51;100.00
43436;BME280;36399;51.444;-2.018;2022-07-12T03:03:17;101064.56;;;15.51;100.00
43436;BME280;36399;51.444;-2.018;2022-07-12T03:05:43;101063.69;;;15.52;100.00
43436;BME280;36399;51.444;-2.018;2022-07-12T03:08:11;101055.75;;;15.50;100.00
43436;BME280;36399;51.444;-2.018;2022-07-12T03:10:37;101061.91;;;15.47;100.00
43436;BME280;36399;51.444;-2.018;2022-07-12T03:13:04;101061.91;;;15.47;100.00
43436;BME280;36399;51.444;-2.018;2022-07-12T03:15:30;101057.50;;;15.48;100.00
43436;BME280;36399;51.444;-2.018;2022-07-12T03:17:57;101056.59;;;15.43;100.00
43436;BME280;36399;51.444;-2.018;2022-07-12T03:20:23;101053.06;;;15.30;100.00
43436;BME280;36399;51.444;-2.018;2022-07-12T03:22:50;101057.44;;;15.18;100.00
43436;BME280;36399;51.444;-2.018;2022-07-12T03:25:18;101069.69;;;15.06;100.00
43436;BME280;36399;51.444;-2.018;2022-07-12T03:27:44;101074.09;;;15.01;100.00
43436;BME280;36399;51.444;-2.018;2022-07-12T03:30:11;101071.44;;;14.98;100.00
43436;BME280;36399;51.444;-2.018;2022-07-12T03:32:37;101061.72;;;14.94;100.00
43436;BME280;36399;51.444;-2.018;2022-07-12T03:35:04;101057.28;;;14.90;100.00
43436;BME280;36399;51.444;-2.018;2022-07-12T03:37:50;101051.09;;;14.87;100.00
43436;BME280;36399;51.444;-2.018;2022-07-12T03:40:18;101040.50;;;14.80;100.00
43436;BME280;36399;51.444;-2.018;2022-07-12T03:42:45;101025.50;;;14.76;100.00
43436;BME280;36399;51.444;-2.018;2022-07-12T03:45:12;101016.72;;;14.82;100.00
43436;BME280;36399;51.444;-2.018;2022-07-12T03:47:39;101004.41;;;14.87;100.00
43436;BME280;36399;51.444;-2.018;2022-07-12T03:50:07;100993.00;;;15.03;100.00
43436;BME280;36399;51.444;-2.018;2022-07-12T03:52:34;100984.25;;;15.24;100.00
43436;BME280;36399;51.444;-2.018;2022-07-12T03:55:01;100979.88;;;15.43;100.00
43436;BME280;36399;51.444;-2.018;2022-07-12T03:57:28;100981.66;;;15.56;100.00
43436;BME280;36399;51.444;-2.018;2022-07-12T03:59:54;100988.72;;;15.57;100.00
43436;BME280;36399;51.444;-2.018;2022-07-12T04:02:21;100986.94;;;15.56;100.00
43436;BME280;36399;51.444;-2.018;2022-07-12T04:04:47;100996.72;;;15.80;100.00
43436;BME280;36399;51.444;-2.018;2022-07-12T04:07:13;100992.31;;;15.77;100.00
43436;BME280;36399;51.444;-2.018;2022-07-12T04:09:40;100979.91;;;15.60;100.00
43436;BME280;36399;51.444;-2.018;2022-07-12T04:12:06;100989.59;;;15.48;100.00
43436;BME280;36399;51.444;-2.018;2022-07-12T04:14:32;100981.66;;;15.42;100.00
43436;BME280;36399;51.444;-2.018;2022-07-12T04:16:59;100998.38;;;15.34;100.00
43436;BME280;36399;51.444;-2.018;2022-07-12T04:19:25;100988.69;;;15.27;100.00
43436;BME280;36399;51.444;-2.018;2022-07-12T04:21:54;100989.56;;;15.23;100.00
43436;BME280;36399;51.444;-2.018;2022-07-12T04:24:23;100993.97;;;15.21;100.00
43436;BME280;36399;51.444;-2.018;2022-07-12T04:26:49;100998.38;;;15.20;100.00
43436;BME280;36399;51.444;-2.018;2022-07-12T04:29:18;100998.38;;;15.22;100.00
43436;BME280;36399;51.444;-2.018;2022-07-12T04:31:45;101001.91;;;15.25;100.00
43436;BME280;36399;51.444;-2.018;2022-07-12T04:34:11;101015.16;;;15.33;100.00
43436;BME280;36399;51.444;-2.018;2022-07-12T04:36:37;101024.84;;;15.38;100.00
43436;BME280;36399;51.444;-2.018;2022-07-12T04:39:03;101032.78;;;15.43;100.00
43436;BME280;36399;51.444;-2.018;2022-07-12T04:41:29;101050.44;;;15.53;100.00
43436;BME280;36399;51.444;-2.018;2022-07-12T04:43:55;101054.84;;;15.50;100.00
43436;BME280;36399;51.444;-2.018;2022-07-12T04:46:24;101066.31;;;15.44;100.00
43436;BME280;36399;51.444;-2.018;2022-07-12T04:48:50;101076.88;;;15.41;100.00
43436;BME280;36399;51.444;-2.018;2022-07-12T04:51:16;101053.94;;;15.37;100.00
43436;BME280;36399;51.444;-2.018;2022-07-12T04:53:43;101055.72;;;15.41;100.00
43436;BME280;36399;51.444;-2.018;2022-07-12T04:56:09;101063.69;;;15.47;100.00
43436;BME280;36399;51.444;-2.018;2022-07-12T04:58:35;101069.88;;;15.55;100.00
43436;BME280;36399;51.444;-2.018;2022-07-12T05:01:01;101066.41;;;15.68;100.00
43436;BME280;36399;51.444;-2.018;2022-07-12T05:03:27;101061.13;;;15.84;100.00
43436;BME280;36399;51.444;-2.018;2022-07-12T05:05:54;101062.91;;;15.94;100.00
43436;BME280;36399;51.444;-2.018;2022-07-12T05:08:21;101054.09;;;16.13;100.00
43436;BME280;36399;51.444;-2.018;2022-07-12T05:10:47;101041.69;;;16.36;100.00
43436;BME280;36399;51.444;-2.018;2022-07-12T05:13:14;101037.25;;;16.57;100.00
43436;BME280;36399;51.444;-2.018;2022-07-12T05:15:40;101036.38;;;16.73;100.00
43436;BME280;36399;51.444;-2.018;2022-07-12T05:18:06;101038.06;;;16.92;100.00
43436;BME280;36399;51.444;-2.018;2022-07-12T05:20:32;101022.09;;;17.01;100.00
43436;BME280;36399;51.444;-2.018;2022-07-12T05:22:59;101011.44;;;17.11;100.00
43436;BME280;36399;51.444;-2.018;2022-07-12T05:25:25;100991.91;;;17.30;100.00
43436;BME280;36399;51.444;-2.018;2022-07-12T05:27:51;100998.03;;;17.38;100.00
43436;BME280;36399;51.444;-2.018;2022-07-12T05:30:17;101002.38;;;17.48;100.00
43436;BME280;36399;51.444;-2.018;2022-07-12T05:32:43;101005.88;;;17.53;100.00
43436;BME280;36399;51.444;-2.018;2022-07-12T05:35:09;101003.19;;;17.59;100.00
43436;BME280;36399;51.444;-2.018;2022-07-12T05:37:35;101004.91;;;17.68;100.00
43436;BME280;36399;51.444;-2.018;2022-07-12T05:40:02;101001.38;;;17.74;100.00
43436;BME280;36399;51.444;-2.018;2022-07-12T05:42:28;101003.06;;;17.81;100.00
43436;BME280;36399;51.444;-2.018;2022-07-12T05:44:54;101016.25;;;17.93;100.00
43436;BME280;36399;51.444;-2.018;2022-07-12T05:47:20;101027.78;;;17.90;100.00
43436;BME280;36399;51.444;-2.018;2022-07-12T05:49:46;101034.97;;;17.79;100.00
43436;BME280;36399;51.444;-2.018;2022-07-12T05:52:12;101050.19;;;17.45;100.00
43436;BME280;36399;51.444;-2.018;2022-07-12T05:54:56;101039.53;;;17.48;100.00
43436;BME280;36399;51.444;-2.018;2022-07-12T05:57:22;101036.81;;;17.59;100.00
43436;BME280;36399;51.444;-2.018;2022-07-12T05:59:48;101034.06;;;17.79;100.00
43436;BME280;36399;51.444;-2.018;2022-07-12T06:02:14;101046.31;;;17.98;100.00
43436;BME280;36399;51.444;-2.018;2022-07-12T06:04:40;101050.72;;;18.01;100.00
43436;BME280;36399;51.444;-2.018;2022-07-12T06:07:06;101047.03;;;18.17;100.00
43436;BME280;36399;51.444;-2.018;2022-07-12T06:09:32;101051.38;;;18.28;100.00
43436;BME280;36399;51.444;-2.018;2022-07-12T06:11:58;101060.09;;;18.43;100.00
43436;BME280;36399;51.444;-2.018;2022-07-12T06:14:24;101053.69;;;18.65;100.00
43436;BME280;36399;51.444;-2.018;2022-07-12T06:16:50;101055.97;;;18.99;100.00
43436;BME280;36399;51.444;-2.018;2022-07-12T06:19:16;101057.44;;;19.21;100.00
43436;BME280;36399;51.444;-2.018;2022-07-12T06:21:43;101062.41;;;19.48;100.00
43436;BME280;36399;51.444;-2.018;2022-07-12T06:24:09;101061.25;;;19.69;100.00
43436;BME280;36399;51.444;-2.018;2022-07-12T06:26:35;101071.53;;;19.94;100.00
43436;BME280;36399;51.444;-2.018;2022-07-12T06:29:02;101082.72;;;20.15;100.00
43436;BME280;36399;51.444;-2.018;2022-07-12T06:31:28;101081.63;;;20.27;100.00
43436;BME280;36399;51.444;-2.018;2022-07-12T06:33:54;101095.56;;;20.47;100.00
43436;BME280;36399;51.444;-2.018;2022-07-12T06:36:20;101100.91;;;20.46;100.00
43436;BME280;36399;51.444;-2.018;2022-07-12T06:38:46;101098.97;;;20.56;100.00
43436;BME280;36399;51.444;-2.018;2022-07-12T06:41:12;101112.44;;;20.48;100.00
43436;BME280;36399;51.444;-2.018;2022-07-12T06:43:38;101116.03;;;20.47;100.00
43436;BME280;36399;51.444;-2.018;2022-07-12T06:46:04;101115.06;;;20.51;100.00
43436;BME280;36399;51.444;-2.018;2022-07-12T06:48:30;101105.00;;;20.65;100.00
43436;BME280;36399;51.444;-2.018;2022-07-12T06:50:56;101106.28;;;20.94;100.00
43436;BME280;36399;51.444;-2.018;2022-07-12T06:53:22;101107.69;;;21.11;100.00
43436;BME280;36399;51.444;-2.018;2022-07-12T06:55:48;101114.53;;;21.26;100.00
43436;BME280;36399;51.444;-2.018;2022-07-12T06:58:14;101107.53;;;21.19;100.00
43436;BME280;36399;51.444;-2.018;2022-07-12T07:00:40;101116.19;;;21.32;100.00
43436;BME280;36399;51.444;-2.018;2022-07-12T07:03:07;101123.09;;;21.44;100.00
43436;BME280;36399;51.444;-2.018;2022-07-12T07:05:32;101111.34;;;21.51;100.00
43436;BME280;36399;51.444;-2.018;2022-07-12T07:07:58;101123.25;;;21.76;100.00
43436;BME280;36399;51.444;-2.018;2022-07-12T07:10:25;101146.41;;;21.76;100.00
43436;BME280;36399;51.444;-2.018;2022-07-12T07:12:51;101142.38;;;21.58;100.00
43436;BME280;36399;51.444;-2.018;2022-07-12T07:15:16;101139.97;;;21.46;100.00
43436;BME280;36399;51.444;-2.018;2022-07-12T07:17:43;101144.28;;;21.51;100.00
43436;BME280;36399;51.444;-2.018;2022-07-12T07:20:10;101141.06;;;21.35;100.00
43436;BME280;36399;51.444;-2.018;2022-07-12T07:22:36;101143.72;;;21.37;100.00
43436;BME280;36399;51.444;-2.018;2022-07-12T07:25:03;101144.59;;;21.37;100.00
43436;BME280;36399;51.444;-2.018;2022-07-12T07:27:29;101139.13;;;21.44;100.00
43436;BME280;36399;51.444;-2.018;2022-07-12T07:29:55;101134.91;;;21.72;100.00
43436;BME280;36399;51.444;-2.018;2022-07-12T07:32:40;101127.75;;;22.14;100.00
43436;BME280;36399;51.444;-2.018;2022-07-12T07:35:07;101122.56;;;22.44;100.00
43436;BME280;36399;51.444;-2.018;2022-07-12T07:37:33;101147.88;;;22.64;100.00
43436;BME280;36399;51.444;-2.018;2022-07-12T07:40:00;101166.88;;;22.91;100.00
43436;BME280;36399;51.444;-2.018;2022-07-12T07:42:26;101182.25;;;23.15;100.00
43436;BME280;36399;51.444;-2.018;2022-07-12T07:44:52;101197.84;;;23.32;100.00
43436;BME280;36399;51.444;-2.018;2022-07-12T07:47:18;101231.84;;;23.30;100.00
43436;BME280;36399;51.444;-2.018;2022-07-12T07:49:44;101244.84;;;23.45;100.00
43436;BME280;36399;51.444;-2.018;2022-07-12T07:52:10;101245.47;;;23.22;100.00
43436;BME280;36399;51.444;-2.018;2022-07-12T07:54:36;101236.16;;;23.36;100.00
43436;BME280;36399;51.444;-2.018;2022-07-12T07:57:03;101240.00;;;23.59;100.00
43436;BME280;36399;51.444;-2.018;2022-07-12T07:59:29;101240.25;;;23.81;100.00
43436;BME280;36399;51.444;-2.018;2022-07-12T08:01:55;101249.53;;;24.30;100.00
43436;BME280;36399;51.444;-2.018;2022-07-12T08:04:21;101257.34;;;24.66;100.00
43436;BME280;36399;51.444;-2.018;2022-07-12T08:06:48;101260.69;;;25.27;100.00
43436;BME280;36399;51.444;-2.018;2022-07-12T08:09:15;101265.56;;;25.65;100.00
43436;BME280;36399;51.444;-2.018;2022-07-12T08:11:42;101279.47;;;25.53;100.00
43436;BME280;36399;51.444;-2.018;2022-07-12T08:14:09;101281.00;;;25.85;100.00
43436;BME280;36399;51.444;-2.018;2022-07-12T08:16:35;101286.19;;;25.90;100.00
43436;BME280;36399;51.444;-2.018;2022-07-12T08:19:03;101290.41;;;25.97;100.00
43436;BME280;36399;51.444;-2.018;2022-07-12T08:21:29;101287.53;;;26.03;100.00
43436;BME280;36399;51.444;-2.018;2022-07-12T08:23:55;101295.25;;;26.12;100.00
43436;BME280;36399;51.444;-2.018;2022-07-12T08:26:22;101291.81;;;26.30;100.00
43436;BME280;36399;51.444;-2.018;2022-07-12T08:28:48;101282.59;;;26.37;100.00
43436;BME280;36399;51.444;-2.018;2022-07-12T08:31:14;101278.97;;;26.38;100.00
43436;BME280;36399;51.444;-2.018;2022-07-12T08:33:40;101278.94;;;26.62;100.00
43436;BME280;36399;51.444;-2.018;2022-07-12T08:36:08;101284.66;;;26.53;100.00
43436;BME280;36399;51.444;-2.018;2022-07-12T08:38:35;101290.19;;;26.50;100.00
43436;BME280;36399;51.444;-2.018;2022-07-12T08:41:04;101286.47;;;26.54;100.00
43436;BME280;36399;51.444;-2.018;2022-07-12T08:43:34;101287.50;;;26.26;100.00
43436;BME280;36399;51.444;-2.018;2022-07-12T08:46:11;101279.97;;;26.36;100.00
43436;BME280;36399;51.444;-2.018;2022-07-12T08:48:38;101277.19;;;26.61;100.00
43436;BME280;36399;51.444;-2.018;2022-07-12T08:51:07;101278.47;;;26.94;100.00
43436;BME280;36399;51.444;-2.018;2022-07-12T08:53:34;101274.25;;;27.31;100.00
43436;BME280;36399;51.444;-2.018;2022-07-12T08:56:02;101269.41;;;27.59;100.00
43436;BME280;36399;51.444;-2.018;2022-07-12T08:58:28;101269.06;;;28.06;100.00
43436;BME280;36399;51.444;-2.018;2022-07-12T09:00:54;101268.34;;;28.21;100.00
43436;BME280;36399;51.444;-2.018;2022-07-12T09:03:20;101265.81;;;28.37;100.00
43436;BME280;36399;51.444;-2.018;2022-07-12T09:05:48;101255.94;;;28.55;100.00
43436;BME280;36399;51.444;-2.018;2022-07-12T09:08:15;101259.00;;;28.66;100.00
43436;BME280;36399;51.444;-2.018;2022-07-12T09:13:45;101271.47;;;28.87;100.00
43436;BME280;36399;51.444;-2.018;2022-07-12T09:16:21;101266.72;;;29.27;100.00
43436;BME280;36399;51.444;-2.018;2022-07-12T09:18:48;101270.94;;;29.67;100.00
43436;BME280;36399;51.444;-2.018;2022-07-12T09:21:28;101262.13;;;29.46;100.00
43436;BME280;36399;51.444;-2.018;2022-07-12T09:23:56;101266.06;;;29.39;100.00
43436;BME280;36399;51.444;-2.018;2022-07-12T09:26:24;101273.31;;;29.56;100.00
43436;BME280;36399;51.444;-2.018;2022-07-12T09:29:05;101268.00;;;29.72;100.00
43436;BME280;36399;51.444;-2.018;2022-07-12T09:31:49;101268.72;;;29.58;100.00
43436;BME280;36399;51.444;-2.018;2022-07-12T09:34:34;101266.88;;;29.24;100.00
43436;BME280;36399;51.444;-2.018;2022-07-12T09:37:20;101256.94;;;29.59;100.00
43436;BME280;36399;51.444;-2.018;2022-07-12T09:39:47;101255.50;;;29.69;100.00
43436;BME280;36399;51.444;-2.018;2022-07-12T09:42:14;101246.53;;;29.84;100.00
43436;BME280;36399;51.444;-2.018;2022-07-12T09:44:41;101259.28;;;29.65;100.00
43436;BME280;36399;51.444;-2.018;2022-07-12T09:47:10;101266.56;;;29.30;100.00
43436;BME280;36399;51.444;-2.018;2022-07-12T09:49:44;101268.97;;;29.19;100.00
43436;BME280;36399;51.444;-2.018;2022-07-12T09:52:14;101264.16;;;29.41;100.00
43436;BME280;36399;51.444;-2.018;2022-07-12T09:54:41;101278.19;;;29.49;100.00
43436;BME280;36399;51.444;-2.018;2022-07-12T09:57:20;101280.28;;;29.44;100.00
43436;BME280;36399;51.444;-2.018;2022-07-12T09:59:47;101275.47;;;29.15;100.00
43436;BME280;36399;51.444;-2.018;2022-07-12T10:02:15;101286.13;;;28.82;100.00
43436;BME280;36399;51.444;-2.018;2022-07-12T10:04:42;101284.13;;;28.68;100.00
43436;BME280;36399;51.444;-2.018;2022-07-12T10:07:09;101273.50;;;29.18;100.00
43436;BME280;36399;51.444;-2.018;2022-07-12T10:09:40;101279.78;;;29.19;100.00
43436;BME280;36399;51.444;-2.018;2022-07-12T10:12:08;101279.72;;;29.88;100.00
43436;BME280;36399;51.444;-2.018;2022-07-12T10:14:36;101288.81;;;29.87;100.00
43436;BME280;36399;51.444;-2.018;2022-07-12T10:17:04;101288.06;;;30.34;100.00
43436;BME280;36399;51.444;-2.018;2022-07-12T10:19:35;101290.84;;;29.99;100.00
43436;BME280;36399;51.444;-2.018;2022-07-12T10:22:04;101290.94;;;30.31;100.00
43436;BME280;36399;51.444;-2.018;2022-07-12T10:26:57;101283.72;;;31.24;100.00
43436;BME280;36399;51.444;-2.018;2022-07-12T10:29:23;101293.75;;;31.82;100.00
43436;BME280;36399;51.444;-2.018;2022-07-12T10:31:52;101296.78;;;31.02;100.00
43436;BME280;36399;51.444;-2.018;2022-07-12T10:34:23;101291.91;;;30.93;100.00
43436;BME280;36399;51.444;-2.018;2022-07-12T10:39:21;101282.28;;;30.87;100.00
43436;BME280;36399;51.444;-2.018;2022-07-12T10:42:15;101281.03;;;31.83;100.00
43436;BME280;36399;51.444;-2.018;2022-07-12T10:44:49;101275.88;;;32.07;98.32
43436;BME280;36399;51.444;-2.018;2022-07-12T10:47:16;101280.72;;;32.16;92.77
43436;BME280;36399;51.444;-2.018;2022-07-12T10:49:48;101285.50;;;32.41;93.04
43436;BME280;36399;51.444;-2.018;2022-07-12T10:52:16;101285.59;;;32.39;90.29
43436;BME280;36399;51.444;-2.018;2022-07-12T10:54:47;101282.28;;;32.20;88.14
43436;BME280;36399;51.444;-2.018;2022-07-12T10:57:43;101278.16;;;32.28;86.58
43436;BME280;36399;51.444;-2.018;2022-07-12T11:00:11;101266.34;;;33.10;84.17
43436;BME280;36399;51.444;-2.018;2022-07-12T11:02:37;101266.00;;;33.02;79.27
43436;BME280;36399;51.444;-2.018;2022-07-12T11:05:03;101265.28;;;33.91;77.46
43436;BME280;36399;51.444;-2.018;2022-07-12T11:07:30;101259.88;;;34.64;78.73
43436;BME280;36399;51.444;-2.018;2022-07-12T11:09:56;101250.56;;;35.14;76.24
43436;BME280;36399;51.444;-2.018;2022-07-12T11:12:32;101255.44;;;35.22;76.10
43436;BME280;36399;51.444;-2.018;2022-07-12T11:14:59;101258.47;;;34.95;69.39
43436;BME280;36399;51.444;-2.018;2022-07-12T11:17:26;101259.69;;;34.54;69.13
43436;BME280;36399;51.444;-2.018;2022-07-12T11:20:12;101271.09;;;34.23;74.37
43436;BME280;36399;51.444;-2.018;2022-07-12T11:22:40;101267.00;;;33.92;75.83
43436;BME280;36399;51.444;-2.018;2022-07-12T11:25:11;101256.75;;;33.57;72.33
43436;BME280;36399;51.444;-2.018;2022-07-12T11:27:38;101259.13;;;33.74;71.76
43436;BME280;36399;51.444;-2.018;2022-07-12T11:30:05;101257.94;;;33.53;73.96
43436;BME280;36399;51.444;-2.018;2022-07-12T11:32:40;101252.81;;;33.61;70.90
43436;BME280;36399;51.444;-2.018;2022-07-12T11:35:19;101257.91;;;34.66;67.63
43436;BME280;36399;51.444;-2.018;2022-07-12T11:37:51;101251.78;;;34.38;66.99
43436;BME280;36399;51.444;-2.018;2022-07-12T11:40:21;101239.06;;;33.75;68.28
43436;BME280;36399;51.444;-2.018;2022-07-12T11:42:58;101241.50;;;33.93;70.61
43436;BME280;36399;51.444;-2.018;2022-07-12T11:45:28;101240.00;;;33.89;70.10
43436;BME280;36399;51.444;-2.018;2022-07-12T11:48:00;101247.78;;;33.80;65.23
43436;BME280;36399;51.444;-2.018;2022-07-12T11:50:28;101254.09;;;33.81;67.09
43436;BME280;36399;51.444;-2.018;2022-07-12T11:52:55;101255.44;;;34.01;63.73
43436;BME280;36399;51.444;-2.018;2022-07-12T11:55:21;101252.16;;;33.05;72.61
43436;BME280;36399;51.444;-2.018;2022-07-12T11:57:49;101264.72;;;32.67;79.93
43436;BME280;36399;51.444;-2.018;2022-07-12T12:00:20;101266.78;;;31.79;83.17
43436;BME280;36399;51.444;-2.018;2022-07-12T12:02:51;101270.06;;;31.98;84.76
43436;BME280;36399;51.444;-2.018;2022-07-12T12:05:19;101264.16;;;31.92;85.56
43436;BME280;36399;51.444;-2.018;2022-07-12T12:07:45;101262.06;;;31.53;85.45
43436;BME280;36399;51.444;-2.018;2022-07-12T12:12:47;101276.19;;;31.29;86.41
43436;BME280;36399;51.444;-2.018;2022-07-12T12:20:18;101262.56;;;31.15;91.38
43436;BME280;36399;51.444;-2.018;2022-07-12T12:22:46;101260.28;;;31.07;96.67
43436;BME280;36399;51.444;-2.018;2022-07-12T12:25:15;101258.09;;;31.58;89.24
43436;BME280;36399;51.444;-2.018;2022-07-12T12:30:13;101249.69;;;32.06;88.47
43436;BME280;36399;51.444;-2.018;2022-07-12T12:35:17;101246.97;;;32.34;81.43
43436;BME280;36399;51.444;-2.018;2022-07-12T12:37:51;101246.50;;;33.35;76.42
43436;BME280;36399;51.444;-2.018;2022-07-12T12:40:19;101245.75;;;33.06;72.77
43436;BME280;36399;51.444;-2.018;2022-07-12T12:42:46;101250.16;;;32.82;79.48
43436;BME280;36399;51.444;-2.018;2022-07-12T12:45:23;101239.53;;;33.04;77.16
43436;BME280;36399;51.444;-2.018;2022-07-12T12:48:07;101242.69;;;32.98;75.08
43436;BME280;36399;51.444;-2.018;2022-07-12T12:50:43;101240.72;;;32.87;75.85
43436;BME280;36399;51.444;-2.018;2022-07-12T12:53:30;101244.25;;;32.34;77.32
43436;BME280;36399;51.444;-2.018;2022-07-12T12:55:56;101231.25;;;32.93;74.47